createdAt,value
2023-01-04T00:00:40.846Z,101314.34
2023-01-04T00:05:46.339Z,101327.38
2023-01-04T00:10:49.182Z,101309.03
2023-01-04T00:15:52.131Z,101308.16
2023-01-04T00:20:56.674Z,101289.06
2023-01-04T00:25:59.525Z,101294.34
2023-01-04T00:31:03.690Z,101278.72
2023-01-04T00:36:12.063Z,101251.81
2023-01-04T00:41:42.055Z,101262.31
2023-01-04T00:46:38.105Z,101245.75
2023-01-04T00:51:43.006Z,101247.47
2023-01-04T00:56:45.833Z,101246.06
2023-01-04T01:01:49.179Z,101228.66
2023-01-04T01:06:53.753Z,101223.25
2023-01-04T01:11:56.595Z,101220.75
2023-01-04T01:16:59.668Z,101236.19
2023-01-04T01:22:04.394Z,101267.22
2023-01-04T01:27:07.387Z,101263.84
2023-01-04T01:32:11.034Z,101271.25
2023-01-04T01:37:15.542Z,101276.78
2023-01-04T01:42:19.690Z,101268.91
2023-01-04T01:47:24.201Z,101261.13
2023-01-04T01:52:31.717Z,101270.78
2023-01-04T01:57:35.257Z,101279.47
2023-01-04T02:02:38.661Z,101278.50
2023-01-04T02:07:43.702Z,101290.88
2023-01-04T02:12:47.302Z,101277.81
2023-01-04T02:17:52.110Z,101283.03
2023-01-04T02:23:12.481Z,101269.13
2023-01-04T02:28:26.713Z,101252.63
2023-01-04T02:33:37.790Z,101261.31
2023-01-04T02:38:46.286Z,101273.47
2023-01-04T02:43:53.187Z,101264.78
2023-01-04T02:48:59.251Z,101273.81
2023-01-04T02:54:03.773Z,101276.66
2023-01-04T02:59:24.142Z,101262.78
2023-01-04T03:04:38.741Z,101257.44
2023-01-04T03:09:43.906Z,101247.09
2023-01-04T03:14:50.593Z,101242.84
2023-01-04T03:19:57.186Z,101223.06
2023-01-04T03:25:01.117Z,101229.25
2023-01-04T03:30:06.333Z,101216.13
2023-01-04T03:35:10.903Z,101226.59
2023-01-04T03:40:25.580Z,101224.94
2023-01-04T03:45:31.770Z,101231.88
2023-01-04T03:50:37.849Z,101232.81
2023-01-04T03:55:42.365Z,101221.53
2023-01-04T04:00:46.939Z,101226.00
2023-01-04T04:05:51.559Z,101239.03
2023-01-04T04:10:54.912Z,101240.84
2023-01-04T04:15:57.783Z,101246.84
2023-01-04T04:21:02.329Z,101250.66
2023-01-04T04:26:05.347Z,101253.25
2023-01-04T04:31:08.223Z,101253.25
2023-01-04T04:36:12.882Z,101267.97
2023-01-04T04:41:15.823Z,101275.03
2023-01-04T04:46:18.724Z,101287.19
2023-01-04T04:51:23.279Z,101288.97
2023-01-04T04:56:26.472Z,101293.34
2023-01-04T05:01:29.366Z,101306.44
2023-01-04T05:06:34.661Z,101316.00
2023-01-04T05:11:37.522Z,101312.38
2023-01-04T05:16:40.483Z,101314.19
2023-01-04T05:21:45.072Z,101308.06
2023-01-04T05:26:47.946Z,101315.78
2023-01-04T05:31:50.856Z,101311.31
2023-01-04T05:36:55.413Z,101296.63
2023-01-04T05:41:58.286Z,101305.38
2023-01-04T05:47:01.155Z,101295.78
2023-01-04T05:52:05.677Z,101294.78
2023-01-04T05:57:08.798Z,101302.59
2023-01-04T06:02:16.042Z,101296.50
2023-01-04T06:07:20.650Z,101310.44
2023-01-04T06:12:23.532Z,101314.84
2023-01-04T06:17:26.416Z,101316.59
2023-01-04T06:22:30.952Z,101325.19
2023-01-04T06:27:33.795Z,101327.81
2023-01-04T06:32:36.720Z,101319.19
2023-01-04T06:37:41.220Z,101312.16
2023-01-04T06:42:44.047Z,101304.38
2023-01-04T06:47:46.866Z,101283.41
2023-01-04T06:52:51.399Z,101271.34
2023-01-04T06:57:59.309Z,101279.94
2023-01-04T07:03:12.648Z,101283.41
2023-01-04T07:08:20.095Z,101270.38
2023-01-04T07:13:22.949Z,101254.75
2023-01-04T07:18:25.871Z,101244.44
2023-01-04T07:23:30.396Z,101232.41
2023-01-04T07:28:33.256Z,101226.28
2023-01-04T07:33:36.123Z,101216.78
2023-01-04T07:38:40.647Z,101196.06
2023-01-04T07:43:43.481Z,101181.25
2023-01-04T07:48:46.358Z,101185.53
2023-01-04T07:53:50.934Z,101179.53
2023-01-04T07:58:53.819Z,101157.91
2023-01-04T08:03:56.656Z,101174.41
2023-01-04T08:09:01.495Z,101170.88
2023-01-04T08:14:04.600Z,101162.09
2023-01-04T08:19:08.443Z,101151.66
2023-01-04T08:24:13.751Z,101143.81
2023-01-04T08:29:17.075Z,101134.28
2023-01-04T08:34:19.989Z,101116.94
2023-01-04T08:39:24.495Z,101128.19
2023-01-04T08:44:27.327Z,101126.50
2023-01-04T08:49:30.163Z,101087.38
2023-01-04T08:59:33.596Z,101067.19
2023-01-04T09:04:37.382Z,101050.84
2023-01-04T09:09:41.148Z,101061.34
2023-01-04T09:14:46.407Z,101039.72
2023-01-04T09:19:50.078Z,101032.69
2023-01-04T09:24:53.719Z,101010.22
2023-01-04T09:29:59.045Z,101021.69
2023-01-04T09:35:02.694Z,101013.84
2023-01-04T09:40:07.497Z,101001.72
2023-01-04T09:45:24.666Z,100988.63
2023-01-04T09:50:33.456Z,100976.50
2023-01-04T09:55:41.838Z,100955.75
2023-01-04T10:00:51.042Z,100928.00
2023-01-04T10:05:56.357Z,100939.38
2023-01-04T10:11:19.259Z,100922.81
2023-01-04T10:22:10.603Z,100909.09
2023-01-04T10:27:25.116Z,100910.78
2023-01-04T10:32:40.013Z,100915.94
2023-01-04T10:37:44.154Z,100895.97
2023-01-04T10:42:57.836Z,100895.97
2023-01-04T10:48:08.968Z,100884.78
2023-01-04T10:53:17.683Z,100891.63
2023-01-04T10:58:27.558Z,100885.56
2023-01-04T11:03:38.572Z,100876.00
2023-01-04T11:08:50.645Z,100889.03
2023-01-04T11:13:54.502Z,100888.16
2023-01-04T11:19:00.268Z,100887.56
2023-01-04T11:24:30.866Z,100883.94
2023-01-04T11:29:38.622Z,100889.06
2023-01-04T11:34:48.576Z,100882.09
2023-01-04T11:39:52.206Z,100883.81
2023-01-04T11:44:59.999Z,100889.06
2023-01-04T11:50:06.416Z,100875.19
2023-01-04T11:55:17.103Z,100869.28
2023-01-04T12:00:21.647Z,100880.59
2023-01-04T12:05:30.300Z,100877.88
2023-01-04T12:10:34.449Z,100883.94
2023-01-04T12:15:46.624Z,100884.84
2023-01-04T12:20:52.035Z,100868.56
2023-01-04T12:25:56.636Z,100876.38
2023-01-04T12:31:31.010Z,100864.13
2023-01-04T12:37:05.296Z,100865.00
2023-01-04T12:42:11.593Z,100853.91
2023-01-04T12:47:47.645Z,100864.38
2023-01-04T12:53:11.193Z,100855.91
2023-01-04T12:59:23.410Z,100852.25
2023-01-04T13:04:28.559Z,100829.81
2023-01-04T13:09:46.423Z,100829.09
2023-01-04T13:14:55.290Z,100827.31
2023-01-04T13:19:58.971Z,100832.56
2023-01-04T13:25:04.918Z,100837.78
2023-01-04T13:30:23.299Z,100826.53
2023-01-04T13:35:26.968Z,100818.69
2023-01-04T13:40:34.495Z,100813.53
2023-01-04T13:46:02.094Z,100807.56
2023-01-04T13:51:17.047Z,100780.56
2023-01-04T13:56:23.910Z,100778.97
2023-01-04T14:01:30.816Z,100807.53
2023-01-04T14:06:40.627Z,100792.72
2023-01-04T14:11:50.592Z,100795.41
2023-01-04T14:17:10.056Z,100785.03
2023-01-04T14:22:50.566Z,100787.66
2023-01-04T14:28:19.668Z,100770.47
2023-01-04T14:33:28.605Z,100767.81
2023-01-04T14:38:37.719Z,100763.47
2023-01-04T14:43:49.383Z,100737.47
2023-01-04T14:48:53.079Z,100732.47
2023-01-04T14:53:56.734Z,100762.78
2023-01-04T14:59:02.068Z,100780.09
2023-01-04T15:04:06.072Z,100732.41
2023-01-04T15:09:11.491Z,100731.53
2023-01-04T15:14:16.944Z,100741.06
2023-01-04T15:19:20.586Z,100734.09
2023-01-04T15:24:24.329Z,100717.50
2023-01-04T15:29:30.694Z,100701.81
2023-01-04T15:34:33.687Z,100706.91
2023-01-04T15:39:37.529Z,100700.81
2023-01-04T15:44:44.429Z,100708.47
2023-01-04T15:49:48.094Z,100705.03
2023-01-04T15:54:51.739Z,100681.63
2023-01-04T15:59:57.189Z,100682.47
2023-01-04T16:05:00.861Z,100677.31
2023-01-04T16:10:04.847Z,100659.28
2023-01-04T16:15:12.551Z,100656.59
2023-01-04T16:20:17.635Z,100653.88
2023-01-04T16:25:21.310Z,100655.53
2023-01-04T16:30:29.815Z,100646.91
2023-01-04T16:35:33.668Z,100641.56
2023-01-04T16:40:40.021Z,100635.47
2023-01-04T16:45:44.594Z,100645.00
2023-01-04T16:50:48.298Z,100633.47
2023-01-04T16:55:51.967Z,100637.38
2023-01-04T17:00:57.337Z,100642.44
2023-01-04T17:06:01.028Z,100645.09
2023-01-04T17:11:50.879Z,100648.50
2023-01-04T17:16:37.192Z,100647.56
2023-01-04T17:21:40.867Z,100645.78
2023-01-04T17:26:44.651Z,100649.94
2023-01-04T17:31:50.015Z,100639.38
2023-01-04T17:36:53.761Z,100639.16
2023-01-04T17:41:57.400Z,100637.97
2023-01-04T17:47:02.783Z,100648.25
2023-01-04T17:52:08.846Z,100654.72
2023-01-04T17:57:12.704Z,100639.31
2023-01-04T18:02:18.031Z,100627.63
2023-01-04T18:07:21.696Z,100638.44
2023-01-04T18:12:25.342Z,100633.88
2023-01-04T18:17:31.682Z,100610.22
2023-01-04T18:22:35.568Z,100612.66
2023-01-04T18:27:39.264Z,100619.47
2023-01-04T18:32:44.570Z,100601.69
2023-01-04T18:37:48.195Z,100613.66
2023-01-04T18:42:52.165Z,100607.59
2023-01-04T18:47:58.242Z,100564.97
2023-01-04T18:53:01.907Z,100559.69
2023-01-04T18:58:05.564Z,100562.31
2023-01-04T19:03:18.024Z,100530.91
2023-01-04T19:08:22.150Z,100548.31
2023-01-04T19:13:25.839Z,100498.63
2023-01-04T19:18:31.171Z,100503.13
2023-01-04T19:23:34.855Z,100484.00
2023-01-04T19:28:38.524Z,100479.78
2023-01-04T19:33:44.006Z,100482.81
2023-01-04T19:38:47.747Z,100471.25
2023-01-04T19:43:51.797Z,100457.13
2023-01-04T19:48:57.137Z,100445.97
2023-01-04T19:54:00.774Z,100433.69
2023-01-04T19:59:04.433Z,100413.69
2023-01-04T20:04:09.719Z,100387.63
2023-01-04T20:09:13.343Z,100365.75
2023-01-04T20:14:16.979Z,100350.97
2023-01-04T20:19:22.335Z,100339.53
2023-01-04T20:24:25.997Z,100334.50
2023-01-04T20:29:29.669Z,100321.47
2023-01-04T20:34:35.056Z,100308.16
2023-01-04T20:39:38.883Z,100315.09
2023-01-04T20:44:42.545Z,100296.59
2023-01-04T20:49:48.234Z,100272.06
2023-01-04T20:54:51.908Z,100272.03
2023-01-04T20:59:56.249Z,100279.00
2023-01-04T21:05:01.561Z,100265.81
2023-01-04T21:10:05.752Z,100262.22
2023-01-04T21:15:10.297Z,100275.34
2023-01-04T21:20:15.828Z,100222.91
2023-01-04T21:25:19.476Z,100227.06
2023-01-04T21:30:23.146Z,100229.53
2023-01-04T21:35:28.925Z,100234.00
2023-01-04T21:40:32.651Z,100211.38
2023-01-04T21:45:39.929Z,100184.03
2023-01-04T21:50:45.313Z,100172.59
2023-01-04T21:55:48.967Z,100158.72
2023-01-04T22:00:52.629Z,100146.13
2023-01-04T22:06:02.011Z,100150.50
2023-01-04T22:11:05.819Z,100111.91
2023-01-04T22:16:11.489Z,100107.25
2023-01-04T22:21:18.692Z,100087.03
2023-01-04T22:26:22.338Z,100087.78
2023-01-04T22:31:26.002Z,100060.56
2023-01-04T22:36:31.355Z,100063.06
2023-01-04T22:41:35.271Z,100064.66
2023-01-04T22:46:42.033Z,100058.63
2023-01-04T22:51:47.446Z,100059.28
2023-01-04T22:56:51.738Z,100066.06
2023-01-04T23:01:55.406Z,100054.66
2023-01-04T23:07:02.081Z,100048.41
2023-01-04T23:12:06.059Z,100025.28
2023-01-04T23:17:09.738Z,100026.03
2023-01-04T23:22:15.151Z,100019.75
2023-01-04T23:27:20.993Z,100011.94
2023-01-04T23:32:24.622Z,100003.06
2023-01-04T23:37:31.924Z,99975.78
2023-01-04T23:42:35.862Z,99981.63
2023-01-04T23:47:39.642Z,99982.22
2023-01-04T23:52:45.017Z,99986.00
2023-01-04T23:57:48.622Z,99990.00
